Time;durP1;ratioP1;P1;durP2;ratioP2;P2;SDS_P1;SDS_P2;PMS_P1;PMS_P2;Temp;Humidity;BMP_temperature;BMP_pressure;BME280_temperature;BME280_humidity;BME280_pressure;Samples;Min_cycle;Max_cycle;Signal;HPM_P1;HPM_P2
2023/07/28 00:00:43;;;;;;;;;;;21.90;58.60;;;;;;5067681;28;19956;-54
2023/07/28 00:03:10;;;;;;;;;;;21.90;58.70;;;;;;5054369;28;19932;-57
2023/07/28 00:05:36;;;;;;;;;;;21.90;58.70;;;;;;5054664;28;19929;-58
2023/07/28 00:08:04;;;;;;;;;;;21.90;58.60;;;;;;5053848;28;19925;-55
2023/07/28 00:10:32;;;;;;;;;;;21.90;58.60;;;;;;5055645;28;19955;-58
2023/07/28 00:12:59;;;;;;;;;;;21.90;58.60;;;;;;5055324;28;19933;-57
2023/07/28 00:15:26;;;;;;;;;;;21.90;58.70;;;;;;5056807;28;19936;-59
2023/07/28 00:17:53;;;;;;;;;;;21.90;58.70;;;;;;5059504;28;20131;-57
2023/07/28 00:20:20;;;;;;;;;;;21.90;58.70;;;;;;5049868;28;19988;-58
2023/07/28 00:22:47;;;;;;;;;;;21.90;58.80;;;;;;5054236;28;19929;-58
2023/07/28 00:25:14;;;;;;;;;;;21.90;58.90;;;;;;5064238;28;19929;-54
2023/07/28 00:27:43;;;;;;;;;;;21.90;58.90;;;;;;5047866;28;19935;-59
2023/07/28 00:30:11;;;;;;;;;;;21.90;58.80;;;;;;5052056;28;19931;-57
2023/07/28 00:32:38;;;;;;;;;;;21.90;58.80;;;;;;5052855;28;19925;-57
2023/07/28 00:35:05;;;;;;;;;;;21.90;58.80;;;;;;5051168;28;19924;-57
2023/07/28 00:37:32;;;;;;;;;;;21.90;58.80;;;;;;5051327;28;19925;-54
2023/07/28 00:39:59;;;;;;;;;;;21.90;58.80;;;;;;5050308;28;19925;-57
2023/07/28 00:42:26;;;;;;;;;;;21.90;58.80;;;;;;5043530;28;19925;-56
2023/07/28 00:44:54;;;;;;;;;;;21.90;58.80;;;;;;5053823;28;19925;-57
2023/07/28 00:47:21;;;;;;;;;;;21.90;58.80;;;;;;5046808;28;19925;-57
2023/07/28 00:49:48;;;;;;;;;;;21.90;58.80;;;;;;5045610;28;19925;-57
2023/07/28 00:52:14;;;;;;;;;;;21.90;58.80;;;;;;5052136;28;19928;-56
2023/07/28 00:54:41;;;;;;;;;;;21.90;58.80;;;;;;5050721;28;19924;-58
2023/07/28 00:57:08;;;;;;;;;;;21.90;58.90;;;;;;5047311;28;19956;-55
2023/07/28 00:59:35;;;;;;;;;;;21.90;58.90;;;;;;5047814;28;19931;-58
2023/07/28 01:02:03;;;;;;;;;;;21.90;58.80;;;;;;5052118;28;19925;-57
2023/07/28 01:04:30;;;;;;;;;;;21.90;58.90;;;;;;5046272;28;20213;-56
2023/07/28 01:06:58;;;;;;;;;;;21.80;58.90;;;;;;5051990;28;19929;-58
2023/07/28 01:09:25;;;;;;;;;;;21.90;58.90;;;;;;5044213;28;19924;-57
2023/07/28 01:11:55;;;;;;;;;;;21.90;58.90;;;;;;5048850;28;19931;-57
2023/07/28 01:14:22;;;;;;;;;;;21.90;58.90;;;;;;5050541;28;20053;-57
2023/07/28 01:16:49;;;;;;;;;;;21.90;58.90;;;;;;5049618;28;19971;-58
2023/07/28 01:19:17;;;;;;;;;;;21.90;59.50;;;;;;5048851;28;19925;-58
2023/07/28 01:21:44;;;;;;;;;;;21.90;58.90;;;;;;5049853;28;19964;-58
2023/07/28 01:24:13;;;;;;;;;;;21.90;59.00;;;;;;5048232;28;19925;-58
2023/07/28 01:26:41;;;;;;;;;;;21.90;59.00;;;;;;5046324;28;20019;-58
2023/07/28 01:29:08;;;;;;;;;;;21.90;59.00;;;;;;5045708;28;19956;-55
2023/07/28 01:31:35;;;;;;;;;;;21.80;59.00;;;;;;5074755;28;19921;-58
2023/07/28 01:34:01;;;;;;;;;;;21.90;59.10;;;;;;5046164;28;19932;-57
2023/07/28 01:36:28;;;;;;;;;;;21.90;59.10;;;;;;5043213;28;19936;-57
2023/07/28 01:38:55;;;;;;;;;;;21.90;59.10;;;;;;5046071;28;19931;-59
2023/07/28 01:41:22;;;;;;;;;;;21.90;59.10;;;;;;5046928;28;19929;-59
2023/07/28 01:43:55;;;;;;;;;;;21.90;59.10;;;;;;5049209;28;20297;-57
2023/07/28 01:46:22;;;;;;;;;;;21.90;59.10;;;;;;5049453;28;19924;-58
2023/07/28 01:48:48;;;;;;;;;;;21.90;59.10;;;;;;5049372;28;19925;-55
2023/07/28 01:51:15;;;;;;;;;;;21.90;59.10;;;;;;5049357;28;19925;-57
2023/07/28 01:53:43;;;;;;;;;;;21.90;59.10;;;;;;5043342;28;20266;-58
2023/07/28 01:56:10;;;;;;;;;;;21.90;59.00;;;;;;5047393;28;19980;-57
2023/07/28 01:58:36;;;;;;;;;;;21.90;59.10;;;;;;5050096;28;19945;-57
2023/07/28 02:01:05;;;;;;;;;;;21.90;59.10;;;;;;5044031;28;20451;-55
2023/07/28 02:03:32;;;;;;;;;;;21.90;59.10;;;;;;5044408;28;19925;-59
2023/07/28 02:05:58;;;;;;;;;;;21.90;59.10;;;;;;5049198;28;20014;-58
2023/07/28 02:08:25;;;;;;;;;;;21.90;59.10;;;;;;5049515;28;19928;-58
2023/07/28 02:10:53;;;;;;;;;;;21.90;59.10;;;;;;5047306;28;19928;-58
2023/07/28 02:13:20;;;;;;;;;;;21.90;59.20;;;;;;5046905;28;19951;-57
2023/07/28 02:15:47;;;;;;;;;;;21.90;59.20;;;;;;5049938;28;19951;-59
2023/07/28 02:18:15;;;;;;;;;;;21.90;59.10;;;;;;5049854;28;19925;-58
2023/07/28 02:20:42;;;;;;;;;;;21.90;59.20;;;;;;5050526;28;19948;-58
2023/07/28 02:23:09;;;;;;;;;;;21.90;59.20;;;;;;5043498;28;19956;-56
2023/07/28 02:25:35;;;;;;;;;;;21.90;59.20;;;;;;5049984;28;20266;-58
2023/07/28 02:28:03;;;;;;;;;;;21.90;59.20;;;;;;5048896;28;19925;-58
2023/07/28 02:30:30;;;;;;;;;;;21.90;59.20;;;;;;5040603;28;19932;-57
2023/07/28 02:32:57;;;;;;;;;;;21.90;59.20;;;;;;5051208;28;19982;-56
2023/07/28 02:35:25;;;;;;;;;;;21.90;59.20;;;;;;5052409;28;19933;-58
2023/07/28 02:37:52;;;;;;;;;;;21.90;59.30;;;;;;5055431;28;19929;-57
2023/07/28 02:40:19;;;;;;;;;;;21.90;59.30;;;;;;5052875;28;19982;-57
2023/07/28 02:42:46;;;;;;;;;;;21.90;59.30;;;;;;5054282;28;19978;-58
2023/07/28 02:45:13;;;;;;;;;;;21.90;59.30;;;;;;5042302;28;19924;-55
2023/07/28 02:47:39;;;;;;;;;;;21.90;59.30;;;;;;5054178;28;20169;-58
2023/07/28 02:50:06;;;;;;;;;;;21.90;59.30;;;;;;5052272;28;19925;-56
2023/07/28 02:52:34;;;;;;;;;;;21.90;59.30;;;;;;5054958;28;19985;-57
2023/07/28 02:55:01;;;;;;;;;;;21.90;59.30;;;;;;5047441;28;20019;-55
2023/07/28 02:57:28;;;;;;;;;;;21.90;59.30;;;;;;5053327;28;19928;-57
2023/07/28 02:59:55;;;;;;;;;;;21.90;59.30;;;;;;5049859;28;19932;-58
2023/07/28 03:02:22;;;;;;;;;;;21.90;59.40;;;;;;5051673;28;19928;-56
2023/07/28 03:04:48;;;;;;;;;;;21.90;59.50;;;;;;5045849;28;20015;-57
2023/07/28 03:07:15;;;;;;;;;;;21.90;59.50;;;;;;5051210;28;19925;-58
2023/07/28 03:09:43;;;;;;;;;;;21.90;59.50;;;;;;5052083;28;19920;-58
2023/07/28 03:12:10;;;;;;;;;;;21.90;59.60;;;;;;5051006;28;19924;-57
2023/07/28 03:14:37;;;;;;;;;;;21.90;59.60;;;;;;5052721;28;19925;-58
2023/07/28 03:17:04;;;;;;;;;;;21.90;59.70;;;;;;5050441;28;20283;-58
2023/07/28 03:19:30;;;;;;;;;;;21.90;59.70;;;;;;5044675;28;19931;-58
2023/07/28 03:21:58;;;;;;;;;;;21.90;59.80;;;;;;5081144;28;19929;-57
2023/07/28 03:24:24;;;;;;;;;;;21.90;59.80;;;;;;5048091;28;19932;-57
2023/07/28 03:26:53;;;;;;;;;;;21.90;59.80;;;;;;5048786;28;19928;-58
2023/07/28 03:29:20;;;;;;;;;;;21.90;59.90;;;;;;5053387;28;19935;-56
2023/07/28 03:31:46;;;;;;;;;;;21.90;59.90;;;;;;5049183;28;20038;-58
2023/07/28 03:34:13;;;;;;;;;;;21.80;59.90;;;;;;5049914;28;19924;-57
2023/07/28 03:36:40;;;;;;;;;;;21.90;60.00;;;;;;5050947;28;19936;-55
2023/07/28 03:39:07;;;;;;;;;;;21.80;59.90;;;;;;5051809;28;19925;-57
2023/07/28 03:41:34;;;;;;;;;;;21.80;59.90;;;;;;5053389;28;19951;-57
2023/07/28 03:44:02;;;;;;;;;;;21.90;60.00;;;;;;5051988;28;19932;-57
2023/07/28 03:46:29;;;;;;;;;;;21.80;59.90;;;;;;5050791;28;19929;-57
2023/07/28 03:48:57;;;;;;;;;;;21.80;59.90;;;;;;5052209;28;19924;-57
2023/07/28 03:51:24;;;;;;;;;;;21.80;59.80;;;;;;5048285;28;19931;-55
2023/07/28 03:53:51;;;;;;;;;;;21.80;59.80;;;;;;5046592;28;19974;-57
2023/07/28 03:56:18;;;;;;;;;;;21.90;59.90;;;;;;5044579;28;19937;-56
2023/07/28 03:58:45;;;;;;;;;;;21.80;59.80;;;;;;5052972;28;19925;-57
2023/07/28 04:01:13;;;;;;;;;;;21.90;59.90;;;;;;5053052;28;19970;-57
2023/07/28 04:03:40;;;;;;;;;;;21.90;59.90;;;;;;5040763;28;19935;-58
2023/07/28 04:06:10;;;;;;;;;;;21.90;59.90;;;;;;5047669;28;19925;-56
2023/07/28 04:08:37;;;;;;;;;;;21.80;59.80;;;;;;5048767;28;19960;-57
2023/07/28 04:11:04;;;;;;;;;;;21.80;59.80;;;;;;5063529;28;19925;-57
2023/07/28 04:13:30;;;;;;;;;;;21.80;59.80;;;;;;5049754;28;19931;-57
2023/07/28 04:15:57;;;;;;;;;;;21.80;59.80;;;;;;5050555;28;19932;-57
2023/07/28 04:18:25;;;;;;;;;;;21.80;59.80;;;;;;5047104;28;19924;-57
2023/07/28 04:20:52;;;;;;;;;;;21.90;59.90;;;;;;5050877;28;19925;-58
2023/07/28 04:23:19;;;;;;;;;;;21.80;59.80;;;;;;5049325;28;19937;-56
2023/07/28 04:25:45;;;;;;;;;;;21.80;59.70;;;;;;5065425;28;19932;-56
2023/07/28 04:28:12;;;;;;;;;;;21.80;59.70;;;;;;5041462;28;19932;-57
2023/07/28 04:30:39;;;;;;;;;;;21.80;59.70;;;;;;5050013;28;19974;-56
2023/07/28 04:33:06;;;;;;;;;;;21.80;59.80;;;;;;5043192;28;20432;-57
2023/07/28 04:35:34;;;;;;;;;;;21.80;59.70;;;;;;5045967;28;19941;-57
2023/07/28 04:38:01;;;;;;;;;;;21.80;59.70;;;;;;5047345;28;19932;-53
2023/07/28 04:40:27;;;;;;;;;;;21.80;59.70;;;;;;5040452;28;19929;-57
2023/07/28 04:42:54;;;;;;;;;;;21.80;59.80;;;;;;5052113;28;19925;-57
2023/07/28 04:45:21;;;;;;;;;;;21.80;59.70;;;;;;5043015;28;19979;-56
2023/07/28 04:47:48;;;;;;;;;;;21.80;59.70;;;;;;5068396;28;19929;-57
2023/07/28 04:50:14;;;;;;;;;;;21.80;59.80;;;;;;5043660;28;19925;-57
2023/07/28 04:52:43;;;;;;;;;;;21.80;59.70;;;;;;5047286;28;19929;-55
2023/07/28 04:55:09;;;;;;;;;;;21.80;59.80;;;;;;5044816;28;19929;-57
2023/07/28 04:57:36;;;;;;;;;;;21.90;59.90;;;;;;5038299;28;19979;-56
2023/07/28 05:00:03;;;;;;;;;;;21.80;59.80;;;;;;5044155;28;19967;-56
2023/07/28 05:02:30;;;;;;;;;;;21.80;59.80;;;;;;5046130;28;19924;-56
2023/07/28 05:04:57;;;;;;;;;;;21.80;59.80;;;;;;5043512;28;19925;-56
2023/07/28 05:07:24;;;;;;;;;;;21.80;59.80;;;;;;5043525;28;19929;-58
2023/07/28 05:09:52;;;;;;;;;;;21.80;59.70;;;;;;5046987;28;19947;-58
2023/07/28 05:12:19;;;;;;;;;;;21.80;59.80;;;;;;5046929;28;19936;-57
2023/07/28 05:14:45;;;;;;;;;;;21.80;59.70;;;;;;5062245;28;19925;-58
2023/07/28 05:17:12;;;;;;;;;;;21.80;59.70;;;;;;5036041;28;19925;-55
2023/07/28 05:19:39;;;;;;;;;;;21.80;59.70;;;;;;5050538;28;20346;-57
2023/07/28 05:22:06;;;;;;;;;;;21.80;59.70;;;;;;5051641;28;19925;-57
2023/07/28 05:24:33;;;;;;;;;;;21.80;59.70;;;;;;5050983;28;20015;-57
2023/07/28 05:27:01;;;;;;;;;;;21.80;59.70;;;;;;5075249;28;20290;-57
2023/07/28 05:29:28;;;;;;;;;;;21.80;59.70;;;;;;5041585;28;19932;-57
2023/07/28 05:31:55;;;;;;;;;;;21.80;59.70;;;;;;5046878;28;19932;-58
2023/07/28 05:34:22;;;;;;;;;;;21.80;59.70;;;;;;5048009;28;19929;-57
2023/07/28 05:36:48;;;;;;;;;;;21.80;59.70;;;;;;5050596;28;19931;-58
2023/07/28 05:39:15;;;;;;;;;;;21.80;59.70;;;;;;5062755;28;19928;-57
2023/07/28 05:41:42;;;;;;;;;;;21.80;59.60;;;;;;5048328;28;19925;-57
2023/07/28 05:44:10;;;;;;;;;;;21.80;59.70;;;;;;5045210;28;19925;-58
2023/07/28 05:46:37;;;;;;;;;;;21.80;59.70;;;;;;5042813;28;19987;-58
2023/07/28 05:49:04;;;;;;;;;;;21.80;59.70;;;;;;5050525;28;19924;-59
2023/07/28 05:51:30;;;;;;;;;;;21.80;59.70;;;;;;5046895;28;19929;-58
2023/07/28 05:53:57;;;;;;;;;;;21.80;59.70;;;;;;5074770;28;19932;-58
2023/07/28 05:56:24;;;;;;;;;;;21.80;59.70;;;;;;5046749;28;19971;-59
2023/07/28 05:58:51;;;;;;;;;;;21.80;59.60;;;;;;5045625;28;19928;-57
2023/07/28 06:01:19;;;;;;;;;;;21.80;59.70;;;;;;5039935;28;19935;-57
2023/07/28 06:03:46;;;;;;;;;;;21.80;59.70;;;;;;5050656;28;19931;-58
2023/07/28 06:06:13;;;;;;;;;;;21.80;59.60;;;;;;5049910;28;19924;-58
2023/07/28 06:08:40;;;;;;;;;;;21.80;59.60;;;;;;5052970;28;19924;-58
2023/07/28 06:11:07;;;;;;;;;;;21.80;59.70;;;;;;5048695;28;19979;-57
2023/07/28 06:13:33;;;;;;;;;;;21.80;59.60;;;;;;5037795;28;19929;-58
2023/07/28 06:16:00;;;;;;;;;;;21.80;59.60;;;;;;5046370;28;19925;-57
2023/07/28 06:18:29;;;;;;;;;;;21.90;59.60;;;;;;5052212;28;19928;-58
2023/07/28 06:20:57;;;;;;;;;;;21.80;59.50;;;;;;5053479;28;19964;-58
2023/07/28 06:23:24;;;;;;;;;;;21.90;59.50;;;;;;5048645;28;19924;-58
2023/07/28 06:25:50;;;;;;;;;;;21.90;59.50;;;;;;5048469;28;19925;-58
2023/07/28 06:28:17;;;;;;;;;;;21.90;59.50;;;;;;5054631;28;19932;-58
2023/07/28 06:30:44;;;;;;;;;;;21.80;59.40;;;;;;5053794;28;20652;-58
2023/07/28 06:33:11;;;;;;;;;;;21.90;59.50;;;;;;5049406;28;19929;-59
2023/07/28 06:35:40;;;;;;;;;;;21.90;59.50;;;;;;5045463;28;19929;-59
2023/07/28 06:38:07;;;;;;;;;;;21.90;59.40;;;;;;5053023;28;19972;-59
2023/07/28 06:40:34;;;;;;;;;;;21.90;59.50;;;;;;5050851;28;19947;-56
2023/07/28 06:43:01;;;;;;;;;;;21.80;59.40;;;;;;5049488;28;20019;-59
2023/07/28 06:45:27;;;;;;;;;;;21.90;59.50;;;;;;5047993;28;19925;-59
2023/07/28 06:47:54;;;;;;;;;;;21.90;59.50;;;;;;5051007;28;19925;-59
2023/07/28 06:50:21;;;;;;;;;;;21.90;59.50;;;;;;5052284;28;19928;-59
2023/07/28 06:52:49;;;;;;;;;;;21.90;59.40;;;;;;5046826;28;19978;-58
2023/07/28 06:55:16;;;;;;;;;;;21.90;59.40;;;;;;5080666;28;19925;-59
2023/07/28 06:57:43;;;;;;;;;;;21.90;59.40;;;;;;5051428;28;19963;-58
2023/07/28 07:00:10;;;;;;;;;;;21.90;59.40;;;;;;5053445;28;19937;-57
2023/07/28 07:02:37;;;;;;;;;;;21.90;59.40;;;;;;5051992;28;19925;-58
2023/07/28 07:05:04;;;;;;;;;;;21.90;59.40;;;;;;5048764;28;19986;-59
2023/07/28 07:07:32;;;;;;;;;;;21.90;59.30;;;;;;5047328;28;19933;-58
2023/07/28 07:10:00;;;;;;;;;;;21.90;59.30;;;;;;5050517;28;19925;-58
2023/07/28 07:12:27;;;;;;;;;;;22.00;59.40;;;;;;5048914;28;19932;-58
2023/07/28 07:14:54;;;;;;;;;;;21.90;59.30;;;;;;5048778;28;19920;-60
2023/07/28 07:17:21;;;;;;;;;;;22.00;59.40;;;;;;5050296;28;19931;-59
2023/07/28 07:19:47;;;;;;;;;;;22.00;59.40;;;;;;5050759;28;19928;-59
2023/07/28 07:22:14;;;;;;;;;;;22.00;60.00;;;;;;5048701;28;19925;-58
2023/07/28 07:24:41;;;;;;;;;;;22.00;59.40;;;;;;5050720;28;20534;-59
2023/07/28 07:27:10;;;;;;;;;;;22.00;59.40;;;;;;5049617;28;19933;-56
2023/07/28 07:29:38;;;;;;;;;;;22.00;59.40;;;;;;5042575;28;20012;-58
2023/07/28 07:32:05;;;;;;;;;;;22.00;59.40;;;;;;5043587;28;19940;-57
2023/07/28 07:34:32;;;;;;;;;;;22.00;59.40;;;;;;5051515;28;19928;-58
2023/07/28 07:36:58;;;;;;;;;;;22.00;59.30;;;;;;5050232;28;19932;-58
2023/07/28 07:39:25;;;;;;;;;;;22.00;59.30;;;;;;5046926;28;19925;-58
2023/07/28 07:41:52;;;;;;;;;;;22.00;59.30;;;;;;5045035;28;19925;-59
2023/07/28 07:44:21;;;;;;;;;;;22.00;59.30;;;;;;5048569;28;19975;-60
2023/07/28 07:46:47;;;;;;;;;;;22.00;59.30;;;;;;5049703;28;19925;-58
2023/07/28 07:49:14;;;;;;;;;;;22.00;59.30;;;;;;5047182;28;19929;-58
2023/07/28 07:51:41;;;;;;;;;;;22.10;59.40;;;;;;5049050;28;19964;-58
2023/07/28 07:54:08;;;;;;;;;;;22.10;59.40;;;;;;5050000;28;19924;-58
2023/07/28 07:56:34;;;;;;;;;;;22.10;59.50;;;;;;5043695;28;19924;-58
2023/07/28 07:59:01;;;;;;;;;;;22.10;59.50;;;;;;5067378;28;20374;-58
2023/07/28 08:01:29;;;;;;;;;;;22.10;59.50;;;;;;5047512;28;19925;-59
2023/07/28 08:03:56;;;;;;;;;;;22.20;59.60;;;;;;5050831;28;19928;-58
2023/07/28 08:06:23;;;;;;;;;;;22.10;59.60;;;;;;5044149;28;19925;-59
2023/07/28 08:08:52;;;;;;;;;;;22.10;59.60;;;;;;5043055;28;19932;-59
2023/07/28 08:11:18;;;;;;;;;;;22.10;59.60;;;;;;5051118;28;19929;-58
2023/07/28 08:13:48;;;;;;;;;;;22.10;59.60;;;;;;5050067;28;19932;-58
2023/07/28 08:16:15;;;;;;;;;;;22.10;59.60;;;;;;5050204;28;19975;-60
2023/07/28 08:18:43;;;;;;;;;;;22.10;59.60;;;;;;5042886;28;19933;-60
2023/07/28 08:21:10;;;;;;;;;;;22.10;59.50;;;;;;5046814;28;19925;-60
2023/07/28 08:23:36;;;;;;;;;;;22.10;59.50;;;;;;5049952;28;19925;-60
2023/07/28 08:26:03;;;;;;;;;;;22.10;59.60;;;;;;5045938;28;19950;-59
2023/07/28 08:28:32;;;;;;;;;;;22.20;59.60;;;;;;5048757;28;19925;-59
2023/07/28 08:30:59;;;;;;;;;;;22.20;59.60;;;;;;5041114;28;19932;-58
2023/07/28 08:33:26;;;;;;;;;;;22.20;59.60;;;;;;5065345;28;19978;-60
2023/07/28 08:35:54;;;;;;;;;;;22.20;59.60;;;;;;5047332;28;19932;-60
2023/07/28 08:38:21;;;;;;;;;;;22.20;59.60;;;;;;5049579;28;19932;-58
2023/07/28 08:40:47;;;;;;;;;;;22.20;59.60;;;;;;5043861;28;19931;-60
2023/07/28 08:43:14;;;;;;;;;;;22.20;59.60;;;;;;5051661;28;19924;-57
2023/07/28 08:45:41;;;;;;;;;;;22.20;59.60;;;;;;5047447;28;20047;-60
2023/07/28 08:48:08;;;;;;;;;;;22.20;59.60;;;;;;5055443;28;19933;-54
2023/07/28 08:50:34;;;;;;;;;;;22.20;59.60;;;;;;5036586;28;19925;-60
2023/07/28 08:53:03;;;;;;;;;;;22.20;59.60;;;;;;5052930;28;19925;-64
2023/07/28 08:55:29;;;;;;;;;;;22.20;60.20;;;;;;5052885;28;19932;-61
2023/07/28 08:57:56;;;;;;;;;;;22.20;59.60;;;;;;5053683;28;19935;-59
2023/07/28 09:00:24;;;;;;;;;;;22.20;59.60;;;;;;5046229;28;19936;-59
2023/07/28 09:02:51;;;;;;;;;;;22.20;59.60;;;;;;5049572;28;19937;-59
2023/07/28 09:05:19;;;;;;;;;;;22.20;59.60;;;;;;5045236;28;19932;-61
2023/07/28 09:07:46;;;;;;;;;;;22.20;59.80;;;;;;5043388;28;19925;-62
2023/07/28 09:10:14;;;;;;;;;;;22.20;60.40;;;;;;5043409;28;19929;-62
2023/07/28 09:12:48;;;;;;;;;;;22.30;61.00;;;;;;5051969;28;19951;-63
2023/07/28 09:15:16;;;;;;;;;;;22.20;61.00;;;;;;5046150;28;19925;-61
2023/07/28 09:17:43;;;;;;;;;;;22.20;61.20;;;;;;5049339;28;20144;-63
2023/07/28 09:20:10;;;;;;;;;;;22.20;61.20;;;;;;5064707;28;19987;-60
2023/07/28 09:22:37;;;;;;;;;;;22.20;61.40;;;;;;5062967;28;20369;-62
2023/07/28 09:25:11;;;;;;;;;;;22.10;61.90;;;;;;5042345;28;19947;-61
2023/07/28 09:27:39;;;;;;;;;;;22.10;62.00;;;;;;5041268;28;19955;-62
2023/07/28 09:30:07;;;;;;;;;;;22.10;62.00;;;;;;5042535;28;19967;-60
2023/07/28 09:32:36;;;;;;;;;;;22.10;62.10;;;;;;5051445;28;19929;-60
2023/07/28 09:35:08;;;;;;;;;;;22.10;62.20;;;;;;5043602;28;20006;-61
2023/07/28 09:37:35;;;;;;;;;;;22.10;62.20;;;;;;5065707;28;19928;-61
2023/07/28 09:40:04;;;;;;;;;;;22.10;62.20;;;;;;5052601;28;19932;-62
2023/07/28 09:42:31;;;;;;;;;;;22.10;62.20;;;;;;5049208;28;19959;-61
2023/07/28 09:44:59;;;;;;;;;;;22.10;62.00;;;;;;5041531;28;19925;-61
2023/07/28 09:47:26;;;;;;;;;;;22.10;62.00;;;;;;5039228;28;20011;-62
2023/07/28 09:49:53;;;;;;;;;;;22.10;62.00;;;;;;5046609;28;19929;-61
2023/07/28 09:52:19;;;;;;;;;;;22.10;62.00;;;;;;5063866;28;19933;-61
2023/07/28 09:54:46;;;;;;;;;;;22.10;62.00;;;;;;5041580;28;19928;-61
2023/07/28 09:57:13;;;;;;;;;;;22.10;62.20;;;;;;5040890;28;19929;-64
2023/07/28 09:59:41;;;;;;;;;;;22.10;62.30;;;;;;5049346;28;19962;-61
2023/07/28 10:02:09;;;;;;;;;;;22.10;62.30;;;;;;5049415;28;19931;-61
2023/07/28 10:04:36;;;;;;;;;;;22.10;62.40;;;;;;5050042;28;20070;-62
2023/07/28 10:07:04;;;;;;;;;;;22.10;62.50;;;;;;5045189;28;19963;-61
2023/07/28 10:09:33;;;;;;;;;;;22.10;62.50;;;;;;5061237;28;19982;-62
2023/07/28 10:11:59;;;;;;;;;;;22.10;62.30;;;;;;5040974;28;19925;-61
2023/07/28 10:14:27;;;;;;;;;;;22.00;62.30;;;;;;5049165;28;19968;-62
2023/07/28 10:16:54;;;;;;;;;;;22.10;62.80;;;;;;5047538;28;19986;-63
2023/07/28 10:19:22;;;;;;;;;;;22.00;62.90;;;;;;5038126;28;19933;-60
2023/07/28 10:21:49;;;;;;;;;;;22.10;63.10;;;;;;5063587;28;19925;-61
2023/07/28 10:24:16;;;;;;;;;;;22.00;62.90;;;;;;5042334;28;19925;-61
2023/07/28 10:26:44;;;;;;;;;;;22.00;62.90;;;;;;5043724;28;19925;-61
2023/07/28 10:29:14;;;;;;;;;;;22.00;62.90;;;;;;5047977;28;19925;-61
2023/07/28 10:31:50;;;;;;;;;;;22.00;63.00;;;;;;5044148;28;19987;-63
2023/07/28 10:34:17;;;;;;;;;;;22.00;63.00;;;;;;5041522;28;19932;-62
2023/07/28 10:36:45;;;;;;;;;;;22.00;63.10;;;;;;5043123;28;19929;-61
2023/07/28 10:39:16;;;;;;;;;;;22.00;63.00;;;;;;5048549;28;20043;-60
2023/07/28 10:42:00;;;;;;;;;;;22.00;62.70;;;;;;5038570;28;20333;-60
2023/07/28 10:44:27;;;;;;;;;;;22.00;62.80;;;;;;5041607;28;19978;-60
2023/07/28 10:46:54;;;;;;;;;;;22.00;62.90;;;;;;5040761;28;19983;-61
2023/07/28 10:49:21;;;;;;;;;;;22.00;62.70;;;;;;5052927;28;19925;-62
2023/07/28 10:51:49;;;;;;;;;;;22.00;63.00;;;;;;5042001;28;19925;-62
2023/07/28 10:54:19;;;;;;;;;;;21.90;63.00;;;;;;5051038;28;19928;-62
2023/07/28 10:56:46;;;;;;;;;;;22.00;63.00;;;;;;5042456;28;19987;-61
2023/07/28 10:59:13;;;;;;;;;;;22.00;62.80;;;;;;5066067;28;19925;-61
2023/07/28 11:01:40;;;;;;;;;;;22.00;62.60;;;;;;5051172;28;19940;-62
2023/07/28 11:04:08;;;;;;;;;;;22.00;63.30;;;;;;5042234;28;19936;-60
2023/07/28 11:06:35;;;;;;;;;;;22.00;62.80;;;;;;5046404;28;19942;-61
2023/07/28 11:09:05;;;;;;;;;;;22.00;63.00;;;;;;5050307;28;20015;-59
2023/07/28 11:11:32;;;;;;;;;;;22.00;63.00;;;;;;5050086;28;19951;-61
2023/07/28 11:13:59;;;;;;;;;;;22.00;62.80;;;;;;5041765;28;19948;-62
2023/07/28 11:16:26;;;;;;;;;;;22.00;62.60;;;;;;5049007;28;19925;-63
2023/07/28 11:18:57;;;;;;;;;;;22.00;62.50;;;;;;5051439;28;19925;-63
2023/07/28 11:21:24;;;;;;;;;;;22.00;62.50;;;;;;5051413;28;20135;-61
2023/07/28 11:23:50;;;;;;;;;;;22.00;63.10;;;;;;5065446;28;19936;-62
2023/07/28 11:26:19;;;;;;;;;;;22.00;63.00;;;;;;5051316;28;19944;-62
2023/07/28 11:28:46;;;;;;;;;;;22.00;63.10;;;;;;5047485;28;19947;-63
2023/07/28 11:31:13;;;;;;;;;;;22.00;63.20;;;;;;5040886;28;19935;-60
2023/07/28 11:33:40;;;;;;;;;;;22.00;63.20;;;;;;5047548;28;19925;-61
2023/07/28 11:36:07;;;;;;;;;;;22.00;63.10;;;;;;5044537;28;19933;-62
2023/07/28 11:38:33;;;;;;;;;;;22.00;63.10;;;;;;5046219;28;19929;-61
2023/07/28 11:41:00;;;;;;;;;;;22.00;63.10;;;;;;5043036;28;19928;-60
2023/07/28 11:43:28;;;;;;;;;;;22.00;63.00;;;;;;5048405;28;19929;-61
2023/07/28 11:45:55;;;;;;;;;;;22.00;63.10;;;;;;5051968;28;20290;-60
2023/07/28 11:48:25;;;;;;;;;;;22.00;63.80;;;;;;5039180;28;19925;-61
2023/07/28 11:50:55;;;;;;;;;;;22.00;64.00;;;;;;5049830;28;19925;-61
2023/07/28 11:53:22;;;;;;;;;;;22.00;63.90;;;;;;5048319;28;19925;-59
2023/07/28 11:55:49;;;;;;;;;;;22.00;63.70;;;;;;5045569;28;19982;-60
2023/07/28 11:58:15;;;;;;;;;;;22.00;63.30;;;;;;5074397;28;19968;-61
2023/07/28 12:00:44;;;;;;;;;;;22.00;63.30;;;;;;5046881;28;19925;-60
2023/07/28 12:03:12;;;;;;;;;;;22.00;63.00;;;;;;5045191;28;19972;-63
2023/07/28 12:05:38;;;;;;;;;;;22.00;63.30;;;;;;5050542;28;20608;-61
2023/07/28 12:08:07;;;;;;;;;;;22.00;63.00;;;;;;5054066;28;19929;-62
2023/07/28 12:10:34;;;;;;;;;;;22.10;63.00;;;;;;5046549;28;19933;-61
2023/07/28 12:13:04;;;;;;;;;;;22.10;62.80;;;;;;5046632;28;19925;-61
2023/07/28 12:15:31;;;;;;;;;;;22.10;62.70;;;;;;5050675;28;20052;-62
2023/07/28 12:18:06;;;;;;;;;;;22.10;63.00;;;;;;5044242;28;20103;-62
2023/07/28 12:20:36;;;;;;;;;;;22.10;63.00;;;;;;5042760;28;19929;-62
2023/07/28 12:23:02;;;;;;;;;;;22.10;62.80;;;;;;5067008;28;19928;-62
2023/07/28 12:25:30;;;;;;;;;;;22.10;63.10;;;;;;5049550;28;19925;-62
2023/07/28 12:27:57;;;;;;;;;;;22.10;63.20;;;;;;5044059;28;19925;-61
2023/07/28 12:30:23;;;;;;;;;;;22.20;63.30;;;;;;5047478;28;19925;-61
2023/07/28 12:32:50;;;;;;;;;;;22.10;63.40;;;;;;5043343;28;19948;-60
2023/07/28 12:35:18;;;;;;;;;;;22.10;63.10;;;;;;5049298;28;19925;-61
2023/07/28 12:37:46;;;;;;;;;;;22.10;63.00;;;;;;5054193;28;19933;-61
2023/07/28 12:40:13;;;;;;;;;;;22.10;62.70;;;;;;5062987;28;20015;-62
2023/07/28 12:42:40;;;;;;;;;;;22.10;63.00;;;;;;5051639;28;19935;-61
2023/07/28 12:45:08;;;;;;;;;;;22.10;63.30;;;;;;5068262;28;19926;-61
2023/07/28 12:47:34;;;;;;;;;;;22.10;63.00;;;;;;5053253;28;19944;-62
2023/07/28 12:50:01;;;;;;;;;;;22.20;62.80;;;;;;5055945;28;19925;-63
2023/07/28 12:52:30;;;;;;;;;;;22.10;63.10;;;;;;5053336;28;19925;-62
2023/07/28 12:54:57;;;;;;;;;;;22.10;63.40;;;;;;5048250;28;19932;-59
2023/07/28 12:57:23;;;;;;;;;;;22.10;63.40;;;;;;5052388;28;19996;-61
2023/07/28 12:59:50;;;;;;;;;;;22.20;63.50;;;;;;5046843;28;19979;-62
2023/07/28 13:02:17;;;;;;;;;;;22.20;63.60;;;;;;5046745;28;19929;-63
2023/07/28 13:04:44;;;;;;;;;;;22.10;64.20;;;;;;5066732;28;19928;-64
2023/07/28 13:07:11;;;;;;;;;;;22.10;63.40;;;;;;5043886;28;19925;-61
2023/07/28 13:09:41;;;;;;;;;;;22.10;63.20;;;;;;5053665;28;19978;-60
2023/07/28 13:12:08;;;;;;;;;;;22.10;63.50;;;;;;5046443;28;20390;-60
2023/07/28 13:14:35;;;;;;;;;;;22.10;63.60;;;;;;5049610;28;19936;-63
2023/07/28 13:17:02;;;;;;;;;;;22.10;63.90;;;;;;5048768;28;19949;-61
2023/07/28 13:19:28;;;;;;;;;;;22.10;64.10;;;;;;5055648;28;19924;-61
2023/07/28 13:21:55;;;;;;;;;;;22.10;64.60;;;;;;5054048;28;19924;-62
2023/07/28 13:24:22;;;;;;;;;;;22.20;65.30;;;;;;5043869;28;19931;-62
2023/07/28 13:26:50;;;;;;;;;;;22.10;65.60;;;;;;5049418;28;19929;-61
2023/07/28 13:29:17;;;;;;;;;;;22.10;66.10;;;;;;5044887;28;19990;-62
2023/07/28 13:31:44;;;;;;;;;;;22.10;66.60;;;;;;5052342;28;19999;-62
2023/07/28 13:34:11;;;;;;;;;;;22.10;67.20;;;;;;5051742;28;19925;-62
2023/07/28 13:36:38;;;;;;;;;;;22.20;67.50;;;;;;5058940;28;19963;-60
2023/07/28 13:39:05;;;;;;;;;;;22.10;67.40;;;;;;5046751;28;20483;-60
2023/07/28 13:41:32;;;;;;;;;;;22.10;67.40;;;;;;5053639;28;20019;-60
2023/07/28 13:44:00;;;;;;;;;;;22.10;67.70;;;;;;5043159;28;19925;-60
2023/07/28 13:46:27;;;;;;;;;;;22.10;67.70;;;;;;5044326;28;19953;-61
2023/07/28 13:48:54;;;;;;;;;;;22.10;67.30;;;;;;5047900;28;19935;-61
2023/07/28 13:51:21;;;;;;;;;;;22.10;68.30;;;;;;5045930;28;19940;-62
2023/07/28 13:53:48;;;;;;;;;;;22.10;68.20;;;;;;5051160;28;19955;-61
2023/07/28 13:56:14;;;;;;;;;;;22.10;67.70;;;;;;5041130;28;19933;-62
2023/07/28 13:58:41;;;;;;;;;;;22.20;67.40;;;;;;5065458;28;19924;-63
2023/07/28 14:01:09;;;;;;;;;;;22.10;67.50;;;;;;5066554;28;19936;-63
2023/07/28 14:03:36;;;;;;;;;;;22.10;66.90;;;;;;5046362;28;20032;-60
2023/07/28 14:06:03;;;;;;;;;;;22.10;66.60;;;;;;5033691;28;20011;-60
2023/07/28 14:08:30;;;;;;;;;;;22.20;67.40;;;;;;5045145;28;19925;-60
2023/07/28 14:10:56;;;;;;;;;;;22.20;67.20;;;;;;5043787;28;19929;-62
2023/07/28 14:13:23;;;;;;;;;;;22.20;67.80;;;;;;5051638;28;19932;-61
2023/07/28 14:15:50;;;;;;;;;;;22.20;66.90;;;;;;5066636;28;19925;-61